Time;durP1;ratioP1;P1;durP2;ratioP2;P2;SDS_P1;SDS_P2;PMS_P1;PMS_P2;Temp;Humidity;BMP_temperature;BMP_pressure;BME280_temperature;BME280_humidity;BME280_pressure;Samples;Min_cycle;Max_cycle;Signal;HPM_P1;HPM_P2
2021/11/24 00:00:36;;;;;;;42.83;29.17;;;4.20;99.80;;;;;;5024104;28;20241;-87
2021/11/24 00:03:05;;;;;;;51.60;32.95;;;4.10;99.80;;;;;;5028432;28;20228;-87
2021/11/24 00:05:36;;;;;;;53.83;33.35;;;4.10;99.80;;;;;;5039247;28;20282;-87
2021/11/24 00:08:05;;;;;;;44.63;30.88;;;4.10;99.80;;;;;;5034717;28;20265;-87
2021/11/24 00:10:35;;;;;;;43.83;31.60;;;4.00;99.80;;;;;;5037873;28;20228;-87
2021/11/24 00:13:04;;;;;;;43.22;29.38;;;4.00;99.80;;;;;;5055069;28;20254;-87
2021/11/24 00:15:34;;;;;;;42.95;30.83;;;3.90;99.80;;;;;;5051385;28;20318;-87
2021/11/24 00:18:06;;;;;;;46.83;29.77;;;3.90;99.80;;;;;;5034691;28;20233;-86
2021/11/24 00:20:36;;;;;;;47.72;32.38;;;3.90;99.80;;;;;;5049754;28;20764;-87
2021/11/24 00:23:04;;;;;;;43.22;29.90;;;3.90;99.80;;;;;;5063473;28;20225;-88
2021/11/24 00:25:32;;;;;;;46.38;30.42;;;3.90;99.80;;;;;;5065360;28;20225;-85
2021/11/24 00:28:00;;;;;;;42.50;29.77;;;3.90;99.80;;;;;;5058465;28;20243;-86
2021/11/24 00:30:28;;;;;;;48.42;31.58;;;4.00;99.80;;;;;;5055372;28;20319;-85
2021/11/24 00:32:56;;;;;;;45.85;31.35;;;4.00;99.80;;;;;;5059097;28;20733;-85
2021/11/24 00:35:25;;;;;;;47.83;31.17;;;4.10;99.80;;;;;;5057439;28;20578;-87
2021/11/24 00:37:54;;;;;;;43.55;30.08;;;4.10;99.80;;;;;;5057955;28;20235;-85
2021/11/24 00:40:22;;;;;;;44.42;31.50;;;4.10;99.80;;;;;;5072749;28;20241;-86
2021/11/24 00:42:50;;;;;;;41.90;30.35;;;4.20;99.80;;;;;;5059710;28;20238;-86
2021/11/24 00:45:22;;;;;;;46.40;31.27;;;4.20;99.80;;;;;;5055855;28;20242;-88
2021/11/24 00:47:50;;;;;;;48.08;32.97;;;4.20;99.80;;;;;;5057514;28;20227;-88
2021/11/24 00:50:18;;;;;;;47.80;32.03;;;4.20;99.80;;;;;;5061676;28;20260;-88
2021/11/24 00:52:46;;;;;;;45.65;31.60;;;4.20;99.80;;;;;;5073375;28;20228;-88
2021/11/24 00:55:17;;;;;;;45.83;32.05;;;4.20;99.80;;;;;;5068367;28;20237;-88
2021/11/24 00:57:45;;;;;;;52.72;32.63;;;4.20;99.80;;;;;;5056766;28;20733;-88
2021/11/24 01:00:15;;;;;;;46.33;32.92;;;4.20;99.80;;;;;;5059416;28;20228;-88
2021/11/24 01:02:43;;;;;;;45.28;32.35;;;4.30;99.80;;;;;;5070962;28;20227;-88
2021/11/24 01:05:12;;;;;;;45.30;31.60;;;4.30;99.80;;;;;;5021264;28;20235;-88
2021/11/24 01:07:40;;;;;;;40.92;29.55;;;4.30;99.80;;;;;;5067839;28;20253;-88
2021/11/24 01:10:11;;;;;;;43.03;30.95;;;4.30;99.80;;;;;;5056620;28;20628;-88
2021/11/24 01:12:42;;;;;;;44.00;31.60;;;4.40;99.80;;;;;;5059871;28;20231;-88
2021/11/24 01:15:12;;;;;;;46.83;32.70;;;4.40;99.80;;;;;;5053896;28;20224;-88
2021/11/24 01:17:40;;;;;;;47.50;32.00;;;4.50;99.80;;;;;;5040732;28;20253;-88
2021/11/24 01:20:08;;;;;;;41.38;29.90;;;4.50;99.80;;;;;;5058711;28;20239;-88
2021/11/24 01:22:36;;;;;;;44.92;31.00;;;4.50;99.80;;;;;;5068320;28;20322;-88
2021/11/24 01:25:05;;;;;;;45.85;30.67;;;4.60;99.80;;;;;;5061428;28;20238;-88
2021/11/24 01:27:33;;;;;;;45.15;32.75;;;4.60;99.80;;;;;;5058401;28;20595;-88
2021/11/24 01:30:03;;;;;;;51.92;32.22;;;4.60;99.80;;;;;;5066421;28;20233;-88
2021/11/24 01:32:32;;;;;;;46.60;32.17;;;4.60;99.80;;;;;;5067476;28;20238;-87
2021/11/24 01:35:00;;;;;;;52.75;32.97;;;4.60;99.80;;;;;;5045306;28;20235;-88
2021/11/24 01:37:28;;;;;;;42.42;29.52;;;4.50;99.80;;;;;;5062025;28;20412;-88
2021/11/24 01:39:56;;;;;;;47.92;30.85;;;4.50;99.80;;;;;;5045268;28;20242;-88
2021/11/24 01:42:24;;;;;;;43.30;30.63;;;4.50;99.80;;;;;;5057134;28;20240;-88
2021/11/24 01:44:52;;;;;;;49.95;33.83;;;4.50;99.80;;;;;;5056383;28;20228;-88
2021/11/24 01:47:21;;;;;;;46.60;31.67;;;4.50;99.80;;;;;;5068306;28;20231;-88
2021/11/24 01:49:49;;;;;;;46.17;31.77;;;4.60;99.80;;;;;;5068131;28;20241;-88
2021/11/24 01:52:17;;;;;;;48.00;32.45;;;4.50;99.80;;;;;;5057247;28;20229;-88
2021/11/24 01:54:46;;;;;;;43.85;31.33;;;4.50;99.80;;;;;;5074070;28;20234;-88
2021/11/24 01:57:17;;;;;;;44.55;32.05;;;4.50;99.80;;;;;;5063827;28;20310;-87
2021/11/24 01:59:47;;;;;;;49.63;31.27;;;4.50;99.80;;;;;;5072638;28;20241;-88
2021/11/24 02:02:17;;;;;;;49.00;32.25;;;4.50;99.80;;;;;;5071628;28;20250;-88
2021/11/24 02:04:47;;;;;;;51.25;32.97;;;4.50;99.80;;;;;;5056368;28;20224;-88
2021/11/24 02:07:15;;;;;;;45.25;31.13;;;4.60;99.80;;;;;;5066713;28;20228;-88
2021/11/24 02:09:43;;;;;;;49.25;33.17;;;4.60;99.80;;;;;;5066885;28;20255;-88
2021/11/24 02:12:12;;;;;;;52.88;33.58;;;4.60;99.80;;;;;;5053118;28;20319;-88
2021/11/24 02:14:41;;;;;;;45.35;30.63;;;4.60;99.80;;;;;;5056387;28;20232;-88
2021/11/24 02:17:09;;;;;;;44.10;30.40;;;4.60;99.80;;;;;;5044994;28;20595;-88
2021/11/24 02:19:38;;;;;;;43.47;30.20;;;4.60;99.80;;;;;;5047321;28;20597;-88
2021/11/24 02:22:07;;;;;;;45.50;32.50;;;4.60;99.80;;;;;;5052795;28;20235;-87
2021/11/24 02:24:38;;;;;;;45.22;31.83;;;4.60;99.80;;;;;;5046611;28;20227;-88
2021/11/24 02:27:08;;;;;;;44.85;30.30;;;4.60;99.80;;;;;;5036907;28;20231;-88
2021/11/24 02:29:36;;;;;;;43.45;30.30;;;4.60;99.80;;;;;;5047113;28;20227;-88
2021/11/24 02:32:05;;;;;;;45.67;33.00;;;4.60;99.80;;;;;;5035319;28;20239;-86
2021/11/24 02:34:34;;;;;;;46.08;30.88;;;4.60;99.80;;;;;;5047741;28;20310;-86
2021/11/24 02:37:03;;;;;;;48.55;33.92;;;4.60;99.80;;;;;;5054605;28;20996;-86
2021/11/24 02:39:32;;;;;;;45.05;30.88;;;4.60;99.80;;;;;;5060603;28;20247;-86
2021/11/24 02:42:00;;;;;;;45.83;32.65;;;4.60;99.80;;;;;;5066205;28;20245;-88
2021/11/24 02:44:30;;;;;;;46.00;31.88;;;4.60;99.80;;;;;;5066974;28;20227;-88
2021/11/24 02:47:08;;;;;;;47.60;31.25;;;4.60;99.80;;;;;;5064954;28;20227;-88
2021/11/24 02:49:37;;;;;;;46.85;31.02;;;4.60;99.80;;;;;;5066535;28;20731;-88
2021/11/24 02:52:07;;;;;;;43.55;31.85;;;4.60;99.80;;;;;;5065191;28;20240;-88
2021/11/24 02:54:37;;;;;;;46.85;31.88;;;4.60;99.80;;;;;;5053098;28;20292;-88
2021/11/24 02:57:07;;;;;;;41.28;30.10;;;4.60;99.80;;;;;;5042711;28;20730;-88
2021/11/24 02:59:37;;;;;;;41.95;29.83;;;4.60;99.80;;;;;;5029921;28;20224;-88
2021/11/24 03:02:05;;;;;;;45.42;32.50;;;4.60;99.80;;;;;;5082447;28;20232;-88
2021/11/24 03:04:35;;;;;;;44.15;31.05;;;4.60;99.80;;;;;;5061611;28;20284;-88
2021/11/24 03:07:03;;;;;;;43.97;30.05;;;4.60;99.80;;;;;;5072905;28;20270;-88
2021/11/24 03:09:32;;;;;;;53.67;31.23;;;4.60;99.80;;;;;;5066049;28;20763;-88
2021/11/24 03:12:01;;;;;;;44.75;31.77;;;4.60;99.80;;;;;;5064430;28;20236;-88
2021/11/24 03:14:29;;;;;;;40.33;30.23;;;4.50;99.80;;;;;;5052051;28;20224;-87
2021/11/24 03:16:57;;;;;;;48.88;31.27;;;4.50;99.80;;;;;;5044574;28;20234;-88
2021/11/24 03:19:25;;;;;;;50.35;34.28;;;4.50;99.80;;;;;;5036168;28;20224;-88
2021/11/24 03:21:53;;;;;;;46.10;29.85;;;4.50;99.80;;;;;;5051444;28;20294;-88
2021/11/24 03:24:21;;;;;;;48.50;32.15;;;4.50;99.80;;;;;;5043903;28;20228;-88
2021/11/24 03:26:49;;;;;;;47.78;32.90;;;4.50;99.80;;;;;;5038026;28;20240;-88
2021/11/24 03:29:18;;;;;;;47.08;31.58;;;4.50;99.80;;;;;;5067713;28;20228;-88
2021/11/24 03:31:47;;;;;;;42.88;30.35;;;4.50;99.80;;;;;;5068624;28;20227;-88
2021/11/24 03:34:15;;;;;;;45.03;29.85;;;4.40;99.80;;;;;;5055203;28;20232;-88
2021/11/24 03:36:43;;;;;;;39.65;28.00;;;4.40;99.80;;;;;;5052407;28;20234;-89
2021/11/24 03:39:11;;;;;;;42.03;30.67;;;4.40;99.80;;;;;;5065954;28;20224;-88
2021/11/24 03:41:39;;;;;;;44.28;30.35;;;4.40;99.80;;;;;;5054671;28;20232;-87
2021/11/24 03:44:07;;;;;;;41.75;30.45;;;4.40;99.80;;;;;;5045427;28;20232;-88
2021/11/24 03:46:36;;;;;;;43.80;28.88;;;4.40;99.80;;;;;;5044704;28;20228;-88
2021/11/24 03:49:05;;;;;;;46.25;31.33;;;4.50;99.80;;;;;;5041338;28;20235;-88
2021/11/24 03:51:33;;;;;;;44.08;30.67;;;4.50;99.80;;;;;;5065414;28;20274;-88
2021/11/24 03:54:01;;;;;;;53.72;32.88;;;4.50;99.80;;;;;;5044845;28;20231;-88
2021/11/24 03:56:29;;;;;;;53.25;32.65;;;4.50;99.80;;;;;;5052506;28;20241;-86
2021/11/24 03:58:57;;;;;;;47.10;32.15;;;4.50;99.80;;;;;;5058114;28;20231;-87
2021/11/24 04:01:25;;;;;;;43.42;32.35;;;4.50;99.80;;;;;;5048413;28;20260;-87
2021/11/24 04:03:55;;;;;;;44.20;31.08;;;4.50;99.80;;;;;;5056920;28;20238;-86
2021/11/24 04:06:29;;;;;;;43.47;30.27;;;4.50;99.80;;;;;;5054746;28;20299;-87
2021/11/24 04:08:57;;;;;;;49.67;30.85;;;4.50;99.80;;;;;;5059487;28;20219;-87
2021/11/24 04:11:25;;;;;;;46.33;31.17;;;4.50;99.80;;;;;;5054778;28;20232;-87
2021/11/24 04:13:54;;;;;;;56.85;33.38;;;4.50;99.80;;;;;;5034327;28;20222;-87
2021/11/24 04:16:22;;;;;;;52.80;32.85;;;4.50;99.80;;;;;;5059802;28;20231;-87
2021/11/24 04:18:50;;;;;;;47.03;32.95;;;4.50;99.80;;;;;;5070127;28;20318;-87
2021/11/24 04:21:19;;;;;;;48.13;32.22;;;4.50;99.80;;;;;;5053804;28;20231;-87
2021/11/24 04:23:47;;;;;;;50.72;32.58;;;4.50;99.80;;;;;;5061456;28;20222;-87
2021/11/24 04:26:15;;;;;;;47.78;32.78;;;4.50;99.80;;;;;;5058470;28;20239;-86
2021/11/24 04:28:43;;;;;;;49.97;32.70;;;4.50;99.80;;;;;;5055249;28;20308;-87
2021/11/24 04:31:11;;;;;;;41.78;30.75;;;4.50;99.80;;;;;;5059921;28;20234;-86
2021/11/24 04:33:39;;;;;;;49.72;31.83;;;4.50;99.80;;;;;;5053250;28;20232;-87
2021/11/24 04:36:08;;;;;;;50.35;33.38;;;4.50;99.80;;;;;;5057498;28;20851;-88
2021/11/24 04:38:37;;;;;;;42.95;30.58;;;4.50;99.80;;;;;;5056512;28;20220;-87
2021/11/24 04:41:05;;;;;;;44.40;31.92;;;4.40;99.80;;;;;;5064535;28;20307;-87
2021/11/24 04:43:38;;;;;;;47.70;30.52;;;4.50;99.80;;;;;;5027917;27;20235;-87
2021/11/24 04:46:06;;;;;;;44.42;30.27;;;4.50;99.80;;;;;;5043116;28;20230;-86
2021/11/24 04:48:36;;;;;;;51.78;33.08;;;4.40;99.80;;;;;;5036878;28;20239;-87
2021/11/24 04:51:04;;;;;;;45.45;32.17;;;4.40;99.80;;;;;;5066191;28;20231;-87
2021/11/24 04:53:34;;;;;;;46.08;34.17;;;4.50;99.80;;;;;;5062873;28;20240;-87
2021/11/24 04:56:04;;;;;;;49.97;33.42;;;4.50;99.80;;;;;;5058437;28;20232;-87
2021/11/24 04:58:35;;;;;;;48.78;34.05;;;4.50;99.80;;;;;;5058479;28;20224;-87
2021/11/24 05:01:03;;;;;;;46.20;31.83;;;4.50;99.80;;;;;;5062505;28;20219;-87
2021/11/24 05:03:31;;;;;;;54.90;32.58;;;4.50;99.80;;;;;;5049037;28;20234;-87
2021/11/24 05:05:59;;;;;;;48.05;33.35;;;4.50;99.80;;;;;;5060277;28;20232;-87
2021/11/24 05:08:28;;;;;;;43.47;31.10;;;4.50;99.80;;;;;;5053828;28;20227;-86
2021/11/24 05:10:56;;;;;;;47.95;31.02;;;4.50;99.80;;;;;;5061215;28;20243;-87
2021/11/24 05:13:25;;;;;;;48.58;33.03;;;4.50;99.80;;;;;;5059372;28;20234;-87
2021/11/24 05:15:57;;;;;;;40.53;31.13;;;4.50;99.80;;;;;;5057535;28;20230;-87
2021/11/24 05:18:27;;;;;;;43.35;29.50;;;4.40;99.80;;;;;;5059084;28;20231;-87
2021/11/24 05:21:01;;;;;;;45.00;31.25;;;4.40;99.80;;;;;;5051327;28;20873;-88
2021/11/24 05:23:31;;;;;;;47.38;30.85;;;4.40;99.80;;;;;;5056184;28;20230;-87
2021/11/24 05:25:59;;;;;;;44.33;30.50;;;4.30;99.80;;;;;;5070323;28;20757;-87
2021/11/24 05:28:28;;;;;;;41.47;30.45;;;4.30;99.80;;;;;;5065272;28;20230;-87
2021/11/24 05:30:56;;;;;;;48.08;30.25;;;4.20;99.80;;;;;;5051720;28;20231;-87
2021/11/24 05:33:24;;;;;;;47.47;32.20;;;4.20;99.80;;;;;;5065700;28;20257;-87
2021/11/24 05:35:52;;;;;;;42.22;31.42;;;4.20;99.80;;;;;;5065124;28;20226;-87
2021/11/24 05:38:20;;;;;;;43.28;30.75;;;4.10;99.80;;;;;;5058920;28;20255;-87
2021/11/24 05:40:48;;;;;;;40.88;29.77;;;4.10;99.80;;;;;;5049999;28;20702;-87
2021/11/24 05:43:20;;;;;;;44.55;31.80;;;4.00;99.80;;;;;;5056042;28;20231;-87
2021/11/24 05:46:11;;;;;;;44.58;30.33;;;3.90;99.80;;;;;;5054577;28;20227;-87
2021/11/24 05:48:38;;;;;;;42.25;31.17;;;3.90;99.80;;;;;;5051033;28;20562;-87
2021/11/24 05:51:07;;;;;;;46.20;32.40;;;3.80;99.80;;;;;;5070211;28;20241;-87
2021/11/24 05:53:35;;;;;;;48.47;30.83;;;3.80;99.80;;;;;;5054242;28;20227;-86
2021/11/24 05:56:03;;;;;;;44.97;31.65;;;3.80;99.80;;;;;;5047762;28;20217;-87
2021/11/24 05:58:31;;;;;;;47.55;31.60;;;3.80;99.80;;;;;;5043130;28;20250;-88
2021/11/24 06:01:01;;;;;;;47.00;30.50;;;3.90;99.80;;;;;;5044554;28;20653;-87
2021/11/24 06:03:29;;;;;;;47.88;31.85;;;3.90;99.80;;;;;;5033457;28;20788;-87
2021/11/24 06:05:57;;;;;;;42.13;29.77;;;4.00;99.80;;;;;;5049329;28;20235;-86
2021/11/24 06:08:25;;;;;;;42.58;31.15;;;4.10;99.80;;;;;;5062533;28;20220;-86
2021/11/24 06:10:53;;;;;;;39.17;29.58;;;4.10;99.80;;;;;;5054022;28;20692;-87
2021/11/24 06:13:21;;;;;;;44.00;32.83;;;4.10;99.80;;;;;;5055571;28;20732;-87
2021/11/24 06:15:49;;;;;;;46.42;32.42;;;4.10;99.80;;;;;;5038788;28;20247;-87
2021/11/24 06:18:19;;;;;;;40.97;30.05;;;4.10;99.80;;;;;;5057608;28;20238;-87
2021/11/24 06:20:48;;;;;;;45.25;31.33;;;4.10;99.80;;;;;;5041344;28;20232;-87
2021/11/24 06:23:16;;;;;;;53.38;31.40;;;4.20;99.80;;;;;;5054242;28;20224;-87
2021/11/24 06:25:44;;;;;;;46.10;32.13;;;4.20;99.80;;;;;;5047594;28;20232;-87
2021/11/24 06:28:12;;;;;;;44.13;29.90;;;4.20;99.80;;;;;;5051142;28;20704;-87
2021/11/24 06:30:40;;;;;;;47.22;30.67;;;4.20;99.80;;;;;;5041591;28;20242;-87
2021/11/24 06:33:08;;;;;;;46.08;32.15;;;4.20;99.80;;;;;;5054284;28;20693;-87
2021/11/24 06:35:38;;;;;;;44.20;31.88;;;4.30;99.80;;;;;;5064338;28;20223;-87
2021/11/24 06:38:07;;;;;;;41.35;30.60;;;4.30;99.80;;;;;;5058251;28;20231;-87
2021/11/24 06:40:35;;;;;;;48.95;33.45;;;4.30;99.80;;;;;;5062828;28;20231;-87
2021/11/24 06:43:03;;;;;;;46.65;31.73;;;4.30;99.80;;;;;;5059547;28;20236;-87
2021/11/24 06:45:31;;;;;;;47.78;32.03;;;4.20;99.80;;;;;;5036286;28;20246;-88
2021/11/24 06:47:59;;;;;;;44.75;28.85;;;4.20;99.80;;;;;;5051793;28;20760;-86
2021/11/24 06:50:27;;;;;;;52.80;31.75;;;4.20;99.80;;;;;;5055950;28;20245;-86
2021/11/24 06:52:57;;;;;;;50.05;31.05;;;4.20;99.80;;;;;;5058188;28;20754;-86
2021/11/24 06:55:25;;;;;;;49.38;32.17;;;4.30;99.80;;;;;;5054378;28;20234;-86
2021/11/24 06:57:53;;;;;;;49.00;34.13;;;4.30;99.80;;;;;;5049177;28;20220;-86
2021/11/24 07:00:21;;;;;;;44.50;31.45;;;4.30;99.80;;;;;;5047737;28;20367;-86
2021/11/24 07:02:48;;;;;;;48.15;32.15;;;4.40;99.80;;;;;;5042393;28;20234;-86
2021/11/24 07:05:17;;;;;;;54.92;36.83;;;4.40;99.80;;;;;;5039759;28;20759;-87
2021/11/24 07:07:45;;;;;;;51.63;34.50;;;4.50;99.80;;;;;;5056379;28;20234;-86
2021/11/24 07:10:14;;;;;;;45.42;32.85;;;4.50;99.80;;;;;;5065234;28;20224;-87
2021/11/24 07:12:42;;;;;;;44.17;31.50;;;4.50;99.80;;;;;;5055185;28;20671;-87
2021/11/24 07:15:11;;;;;;;52.70;34.95;;;4.60;99.80;;;;;;5049677;28;20224;-87
2021/11/24 07:17:39;;;;;;;44.42;32.20;;;4.60;99.80;;;;;;5061961;28;20219;-87
2021/11/24 07:20:08;;;;;;;48.00;34.08;;;4.60;99.80;;;;;;5051124;28;20238;-87
2021/11/24 07:22:36;;;;;;;45.35;30.90;;;4.60;99.80;;;;;;5058019;28;20232;-87
2021/11/24 07:25:04;;;;;;;50.47;32.95;;;4.60;99.80;;;;;;5051584;28;20254;-87
2021/11/24 07:27:34;;;;;;;44.30;30.70;;;4.60;99.80;;;;;;5046365;28;20237;-87
2021/11/24 07:30:02;;;;;;;43.03;31.40;;;4.60;99.80;;;;;;5056503;28;20236;-87
2021/11/24 07:32:30;;;;;;;49.58;35.72;;;4.70;99.80;;;;;;5054246;28;20243;-87
2021/11/24 07:35:00;;;;;;;53.20;35.83;;;4.80;99.80;;;;;;5049116;28;20235;-87
2021/11/24 07:37:28;;;;;;;57.20;38.97;;;4.80;99.80;;;;;;5053336;28;20597;-87
2021/11/24 07:39:57;;;;;;;53.33;34.85;;;4.90;99.80;;;;;;5041237;28;20223;-87
2021/11/24 07:42:25;;;;;;;43.15;32.38;;;4.90;99.80;;;;;;5072076;28;20785;-86
2021/11/24 07:44:56;;;;;;;51.97;34.35;;;5.00;99.80;;;;;;5069356;28;20322;-85
2021/11/24 07:47:24;;;;;;;45.72;32.00;;;5.00;99.80;;;;;;5054264;28;20220;-85
2021/11/24 07:49:52;;;;;;;49.22;32.10;;;5.00;99.80;;;;;;5067777;28;20228;-85
2021/11/24 07:52:20;;;;;;;45.70;32.67;;;5.10;99.80;;;;;;5075449;28;20349;-85
2021/11/24 07:54:49;;;;;;;43.13;31.00;;;5.10;99.80;;;;;;5072259;28;20224;-86
2021/11/24 07:57:18;;;;;;;43.08;31.17;;;5.10;99.80;;;;;;5075832;28;20225;-86
2021/11/24 07:59:46;;;;;;;44.97;32.05;;;5.10;99.80;;;;;;5059381;28;20240;-85
2021/11/24 08:02:15;;;;;;;51.92;34.03;;;5.10;99.80;;;;;;5067919;28;20609;-85
2021/11/24 08:04:44;;;;;;;49.25;32.13;;;5.10;99.80;;;;;;5060938;28;20239;-85
2021/11/24 08:07:11;;;;;;;45.10;32.70;;;5.20;99.80;;;;;;5061675;28;20231;-85
2021/11/24 08:09:40;;;;;;;45.22;32.95;;;5.20;99.80;;;;;;5072487;28;20227;-85
2021/11/24 08:12:23;;;;;;;50.03;34.60;;;5.20;99.80;;;;;;5047451;28;20315;-85
2021/11/24 08:14:52;;;;;;;42.25;28.55;;;5.20;99.80;;;;;;5045868;28;20289;-85
2021/11/24 08:17:22;;;;;;;44.03;32.72;;;5.20;99.80;;;;;;5047928;28;20891;-85
2021/11/24 08:19:50;;;;;;;45.08;31.38;;;5.30;99.80;;;;;;5044335;28;20245;-85
2021/11/24 08:22:18;;;;;;;50.25;33.40;;;5.30;99.80;;;;;;5056229;28;20229;-84
2021/11/24 08:24:46;;;;;;;43.95;32.83;;;5.40;99.80;;;;;;5051992;28;20239;-85
2021/11/24 08:27:17;;;;;;;50.45;34.28;;;5.40;99.80;;;;;;5048187;28;20240;-85
2021/11/24 08:29:45;;;;;;;53.78;36.90;;;5.40;99.80;;;;;;5046370;28;20255;-86
2021/11/24 08:32:14;;;;;;;44.53;32.03;;;5.50;99.80;;;;;;5051413;28;20256;-86
2021/11/24 08:34:43;;;;;;;49.10;33.97;;;5.60;99.80;;;;;;5047448;28;20280;-86
2021/11/24 08:37:11;;;;;;;48.03;34.42;;;5.60;99.80;;;;;;5055190;28;20276;-86
2021/11/24 08:39:41;;;;;;;80.43;47.88;;;5.70;99.80;;;;;;5065721;28;20237;-86
2021/11/24 08:42:09;;;;;;;51.40;35.75;;;5.80;99.80;;;;;;5076292;28;20291;-86
2021/11/24 08:44:42;;;;;;;49.35;34.95;;;5.80;99.80;;;;;;5070283;28;20277;-86
2021/11/24 08:47:10;;;;;;;66.28;46.25;;;5.90;99.80;;;;;;5075812;28;20256;-86
2021/11/24 08:49:38;;;;;;;53.30;36.33;;;5.90;99.80;;;;;;5072935;28;20224;-86
2021/11/24 08:52:08;;;;;;;47.08;35.03;;;6.00;99.80;;;;;;5082270;28;20235;-87
2021/11/24 08:54:39;;;;;;;64.93;43.28;;;6.10;99.80;;;;;;5080602;28;20232;-86
2021/11/24 08:57:07;;;;;;;67.18;46.58;;;6.10;99.80;;;;;;5082317;28;20298;-86
2021/11/24 08:59:36;;;;;;;64.88;45.05;;;6.20;99.80;;;;;;5076318;28;20230;-86
2021/11/24 09:02:04;;;;;;;61.22;43.53;;;6.30;99.80;;;;;;5072036;28;20231;-86
2021/11/24 09:04:33;;;;;;;63.72;44.25;;;6.40;99.80;;;;;;5072632;28;20220;-86
2021/11/24 09:07:01;;;;;;;70.10;47.05;;;6.40;99.80;;;;;;5087525;28;20220;-86
2021/11/24 09:09:31;;;;;;;66.85;45.30;;;6.50;99.80;;;;;;5073815;28;20249;-86
2021/11/24 09:11:59;;;;;;;60.10;42.78;;;6.50;99.80;;;;;;5070711;28;20334;-86
2021/11/24 09:14:28;;;;;;;68.88;45.17;;;6.60;99.80;;;;;;5066719;28;20225;-86
2021/11/24 09:17:07;;;;;;;62.28;42.08;;;6.60;99.80;;;;;;5066210;28;20238;-86
2021/11/24 09:19:37;;;;;;;63.72;44.40;;;6.60;99.80;;;;;;5073280;28;20224;-86
2021/11/24 09:22:22;;;;;;;59.50;42.65;;;6.80;99.80;;;;;;5080283;28;20295;-86
2021/11/24 09:24:56;;;;;;;79.18;53.17;;;6.80;99.80;;;;;;5075191;28;20232;-86
2021/11/24 09:27:30;;;;;;;71.75;47.80;;;6.80;99.80;;;;;;5081558;28;20259;-86
2021/11/24 09:30:00;;;;;;;61.85;43.13;;;6.90;99.80;;;;;;5080564;28;20275;-86
2021/11/24 09:32:29;;;;;;;62.05;44.05;;;6.90;99.80;;;;;;5058653;28;20221;-86
2021/11/24 09:34:59;;;;;;;69.32;47.20;;;6.90;99.80;;;;;;5085147;28;20228;-86
2021/11/24 09:37:27;;;;;;;68.78;47.22;;;7.10;99.80;;;;;;5083845;28;20240;-86
2021/11/24 09:39:57;;;;;;;63.03;43.40;;;7.30;99.80;;;;;;5079733;28;20272;-86
2021/11/24 09:42:29;;;;;;;60.10;44.78;;;7.30;99.80;;;;;;5075008;28;20244;-86
2021/11/24 09:44:57;;;;;;;67.28;47.03;;;7.30;99.80;;;;;;5061348;28;20251;-86
2021/11/24 09:47:33;;;;;;;65.97;47.20;;;7.30;99.80;;;;;;5071995;28;20224;-86
2021/11/24 09:50:05;;;;;;;62.95;44.65;;;7.50;99.80;;;;;;5048713;28;20304;-86
2021/11/24 09:52:35;;;;;;;61.45;44.50;;;7.50;99.80;;;;;;5053756;28;20237;-87
2021/11/24 09:55:05;;;;;;;64.25;44.15;;;7.60;99.80;;;;;;5038268;28;20229;-88
2021/11/24 09:57:34;;;;;;;61.65;43.75;;;7.70;99.80;;;;;;5043677;28;20248;-88
2021/11/24 10:00:02;;;;;;;67.33;47.83;;;7.70;99.80;;;;;;5049073;28;20302;-87
2021/11/24 10:02:30;;;;;;;72.63;45.45;;;7.70;99.80;;;;;;5064843;28;20473;-86
2021/11/24 10:04:58;;;;;;;66.72;45.17;;;7.70;99.80;;;;;;5054595;28;20225;-86
2021/11/24 10:07:26;;;;;;;66.45;47.08;;;7.70;99.80;;;;;;5063662;28;20228;-86
2021/11/24 10:09:54;;;;;;;59.73;42.63;;;7.80;99.80;;;;;;5065556;28;20234;-86
2021/11/24 10:12:24;;;;;;;62.30;41.72;;;7.80;99.80;;;;;;5050254;28;20554;-86
2021/11/24 10:14:52;;;;;;;64.00;43.58;;;7.90;99.80;;;;;;5050224;28;20231;-86
2021/11/24 10:17:23;;;;;;;65.47;44.88;;;8.00;99.80;;;;;;5054263;28;20327;-86
2021/11/24 10:20:01;;;;;;;65.53;45.47;;;8.00;99.80;;;;;;5050021;28;20229;-86
2021/11/24 10:22:31;;;;;;;66.03;45.85;;;8.20;99.80;;;;;;5066942;28;20227;-86
2021/11/24 10:25:08;;;;;;;66.10;44.77;;;8.20;99.80;;;;;;5050391;28;20228;-86
2021/11/24 10:27:40;;;;;;;64.27;43.50;;;8.30;99.80;;;;;;5022373;28;20466;-87
2021/11/24 10:30:24;;;;;;;60.47;41.70;;;8.40;99.80;;;;;;5032790;28;20500;-86
2021/11/24 10:32:53;;;;;;;61.03;42.43;;;8.40;99.80;;;;;;5031740;28;20509;-86
2021/11/24 10:35:25;;;;;;;61.10;43.47;;;8.40;99.80;;;;;;5033685;28;20475;-86
2021/11/24 10:38:12;;;;;;;58.33;41.67;;;8.50;99.80;;;;;;5042776;28;20513;-86
2021/11/24 10:40:41;;;;;;;61.40;43.22;;;8.50;99.80;;;;;;5044764;28;20485;-84
2021/11/24 10:43:14;;;;;;;61.77;42.60;;;8.60;99.80;;;;;;5044991;28;20263;-84
2021/11/24 10:45:53;;;;;;;62.10;43.43;;;8.70;99.80;;;;;;5041559;28;20481;-86
2021/11/24 10:48:26;;;;;;;61.50;43.20;;;8.70;99.80;;;;;;5052996;28;20993;-84
2021/11/24 10:51:00;;;;;;;55.83;39.17;;;8.70;99.80;;;;;;5060319;28;20477;-86
2021/11/24 10:53:28;;;;;;;57.55;40.33;;;8.80;99.80;;;;;;5063390;28;20483;-87
2021/11/24 10:56:09;;;;;;;61.15;42.65;;;8.80;99.80;;;;;;5058886;28;20234;-87
2021/11/24 10:58:39;;;;;;;58.37;40.97;;;8.70;99.80;;;;;;5059071;28;20232;-85
2021/11/24 11:01:07;;;;;;;61.72;43.20;;;;;;;;;;5065615;28;21002;-85
2021/11/24 11:03:40;;;;;;;60.90;43.08;;;8.70;99.80;;;;;;5066138;28;20251;-85
2021/11/24 11:06:08;;;;;;;63.90;41.43;;;8.80;99.80;;;;;;5066906;28;20264;-85
2021/11/24 11:08:36;;;;;;;62.47;42.72;;;8.80;99.80;;;;;;5067210;28;20469;-85
2021/11/24 11:11:29;;;;;;;59.05;40.97;;;8.70;99.80;;;;;;5049835;28;20233;-86
2021/11/24 11:14:18;;;;;;;57.42;40.47;;;8.60;99.80;;;;;;5068942;28;20239;-88
2021/11/24 11:16:49;;;;;;;54.70;38.50;;;8.60;99.80;;;;;;5057861;28;20220;-87
2021/11/24 11:19:42;;;;;;;55.30;37.70;;;8.50;99.80;;;;;;5066307;28;20466;-87
2021/11/24 11:22:15;;;;;;;55.27;37.87;;;8.50;99.80;;;;;;5057882;28;21070;-87
2021/11/24 11:24:43;;;;;;;56.67;40.28;;;8.50;99.80;;;;;;5044138;28;20483;-86
2021/11/24 11:27:11;;;;;;;56.27;39.20;;;8.50;99.80;;;;;;5049982;28;20226;-87
2021/11/24 11:29:42;;;;;;;55.67;38.77;;;8.50;99.80;;;;;;5031769;28;20465;-86
2021/11/24 11:32:12;;;;;;;65.75;43.70;;;8.60;99.80;;;;;;5021271;28;20476;-87
2021/11/24 11:34:42;;;;;;;58.60;39.33;;;8.60;99.80;;;;;;5045649;28;20228;-87
2021/11/24 11:37:10;;;;;;;62.20;40.97;;;8.50;99.80;;;;;;5017481;28;20465;-86
2021/11/24 11:39:39;;;;;;;57.63;39.90;;;8.50;99.80;;;;;;5029199;28;20232;-86
2021/11/24 11:42:11;;;;;;;56.73;39.30;;;8.50;99.80;;;;;;5024207;28;20832;-87
2021/11/24 11:45:06;;;;;;;54.73;38.23;;;8.50;99.80;;;;;;5052559;28;20966;-87
2021/11/24 11:47:50;;;;;;;55.63;38.67;;;8.50;99.80;;;;;;5042719;28;20487;-86
2021/11/24 11:50:59;;;;;;;62.47;40.30;;;8.60;99.80;;;;;;5060472;28;20968;-86
2021/11/24 11:53:30;;;;;;;42.63;31.77;;;8.70;99.80;;;;;;5004265;28;20471;-86
2021/11/24 11:56:25;;;;;;;50.80;36.17;;;8.70;99.80;;;;;;5047357;28;20459;-88
2021/11/24 11:59:00;;;;;;;41.00;30.73;;;8.70;99.80;;;;;;5029562;28;20467;-88
2021/11/24 12:01:33;;;;;;;57.20;38.63;;;8.70;99.80;;;;;;5035928;28;20228;-87
2021/11/24 12:04:13;;;;;;;56.17;38.90;;;8.70;99.80;;;;;;5041040;28;20526;-87
2021/11/24 12:06:44;;;;;;;54.93;38.13;;;8.70;99.80;;;;;;5029776;28;20474;-88
2021/11/24 12:09:16;;;;;;;54.03;38.73;;;8.70;99.80;;;;;;5047200;28;20551;-87
2021/11/24 12:12:18;;;;;;;52.93;36.73;;;8.70;99.80;;;;;;5036851;28;21025;-87
2021/11/24 12:14:58;;;;;;;33.30;25.10;;;8.60;99.80;;;;;;5062177;28;20450;-88
2021/11/24 12:17:56;;;;;;;38.03;27.37;;;8.60;99.80;;;;;;5060274;28;20471;-88
2021/11/24 12:20:41;;;;;;;53.30;37.70;;;8.60;99.80;;;;;;5062489;28;20470;-88
2021/11/24 12:23:29;;;;;;;62.00;39.60;;;8.60;99.80;;;;;;5058987;28;21151;-88
2021/11/24 12:25:59;;;;;;;55.93;38.23;;;8.60;99.80;;;;;;5055374;28;20472;-86
2021/11/24 12:28:36;;;;;;;55.90;39.30;;;8.80;99.80;;;;;;5035362;28;20470;-85
2021/11/24 12:31:12;;;;;;;57.07;39.30;;;8.90;99.80;;;;;;5027524;28;20472;-85
2021/11/24 12:33:53;;;;;;;63.87;42.00;;;9.10;99.80;;;;;;5049093;28;20471;-86
2021/11/24 12:36:32;;;;;;;58.90;39.87;;;9.40;99.80;;;;;;5049755;28;20538;-85
2021/11/24 12:39:05;;;;;;;59.10;40.97;;;9.60;99.80;;;;;;5036434;28;20479;-86
2021/11/24 12:41:38;;;;;;;58.43;39.73;;;9.80;99.80;;;;;;5038591;28;20857;-85
2021/11/24 12:44:09;;;;;;;63.97;44.53;;;9.80;99.80;;;;;;5031541;28;20478;-86
2021/11/24 12:46:40;;;;;;;64.93;43.33;;;9.80;99.80;;;;;;5026175;28;20479;-85
2021/11/24 12:49:12;;;;;;;60.13;42.37;;;9.80;99.80;;;;;;5039027;28;20479;-86
2021/11/24 12:51:46;;;;;;;59.83;41.03;;;9.70;99.80;;;;;;5040516;28;20479;-86
2021/11/24 12:54:16;;;;;;;65.37;41.30;;;9.50;99.80;;;;;;5057706;28;20835;-86